Latest Coastal Weather Observations for Robe Airport

IDV60701

Issued at 10:01 am EDT Wednesday 28 January 2015 (issued every 10 minutes, with the page automatically refreshed every 10 minutes)

About coastal observations | Map of coastal stations | Coastal observations for VIC | Marine services | Other Formats
Station Details ID: 026105 Name: ROBE AIRFIELD Lat: -37.18 Lon: 139.81 Height: 3.0 m
Data from the previous 72 hours. | See also: Recent months at Robe Airport
Date/Time
EDT
Temp

°C
Wind Pressure Rain
since 9am
mm
Weather Cloud Vis
km
Sea
Height
m
Swell
Dir
 
Speed
knots
Gust
knots
hPa Trend Height
m
Period
s
Dir
28/10:00am 18.0 SE 15 22 1020.1 - 0.0 - - - - - - -
28/09:30am 17.1 SSE 16 21 1020.1 - 0.0 - - - - - - -
28/09:00am 16.7 SE 16 26 1019.9 - 0.0 - - - - - - -
28/08:52am 16.1 SE 16 26 1019.8 - 0.0 - - - - - - -
28/08:30am 16.2 SE 15 24 1019.6 - 0.0 - - - - - - -
28/08:21am 15.9 SE 15 25 1019.5 - 0.0 - - - - - - -
28/08:00am 15.3 SSE 13 18 1019.3 - 0.0 - - - - - - -
28/07:30am 14.5 SE 11 19 1018.9 - 0.0 - - - - - - -
28/07:00am 13.2 SSE 9 14 1018.5 - 0.0 - - - - - - -
28/06:30am 12.4 SE 7 9 1018.3 - 0.0 - - - - - - -
28/06:00am 12.7 SE 7 10 1018.2 - 0.0 - - - - - - -
28/05:30am 13.5 SE 9 17 1018.3 - 0.0 - - - - - - -
28/05:00am 13.4 SE 7 10 1018.3 - 0.0 - - - - - - -
28/04:30am 13.3 SSE 9 14 1018.5 - 0.0 - - - - - - -
28/04:00am 13.1 SE 8 11 1018.6 - 0.0 - - - - - - -
28/03:30am 13.3 SE 7 11 1018.9 - 0.0 - - - - - - -
28/03:00am 13.4 SE 7 11 1019.0 - 0.0 - - - - - - -
28/02:30am 13.1 SSE 6 10 1019.3 - 0.0 - - - - - - -
28/02:00am 12.2 SSE 5 8 1019.8 - 0.0 - - - - - - -
28/01:30am 12.8 SE 6 9 1019.9 - 0.0 - - - - - - -
28/01:00am 13.2 SE 8 11 1020.0 - 0.0 - - - - - - -
28/12:30am 13.5 SE 9 12 1020.0 - 0.0 - - - - - - -
28/12:00am 13.7 SE 10 15 1020.0 - 0.0 - - - - - - -
 
Date/Time
EDT
Temp

°C
Wind Pressure Rain
since 9am
mm
Weather Cloud Vis
km
Sea
Height
m
Swell
Dir
 
Speed
knots
Gust
knots
hPa Trend Height
m
Period
s
Dir
27/11:30pm 14.2 SSE 11 17 1019.9 - 0.0 - - - - - - -
27/11:00pm 14.7 SSE 14 22 1019.6 - 0.0 - - - - - - -
27/10:30pm 14.6 SE 10 14 1019.7 - 0.0 - - - - - - -
27/10:00pm 15.0 SSE 12 20 1019.6 - 0.0 - - - - - - -
27/09:30pm 15.4 SSE 13 21 1019.3 - 0.0 - - - - - - -
27/09:00pm 15.9 SSE 15 24 1018.9 - 0.0 - - - - - - -
27/08:30pm 16.1 SSE 17 23 1018.7 - 0.0 - - - - - - -
27/08:00pm 16.3 SSE 15 20 1018.6 - 0.0 - - - - - - -
27/07:30pm 16.9 SSE 16 23 1018.4 - 0.0 - - - - - - -
27/07:00pm 17.4 SSE 18 24 1018.1 - 0.0 - - - - - - -
27/06:30pm 17.8 SSE 17 26 1018.1 - 0.0 - - - - - - -
27/06:00pm 18.1 SSE 20 26 1018.0 - 0.0 - - - - - - -
27/05:30pm 18.7 S 19 27 1018.1 - 0.0 - - - - - - -
27/05:00pm 18.6 S 21 29 1018.0 - 0.0 - - - - - - -
27/04:30pm 18.5 S 20 28 1018.0 - 0.0 - - - - - - -
27/04:00pm 18.6 S 21 27 1018.0 - 0.0 - - - - - - -
27/03:30pm 19.3 S 19 27 1018.2 - 0.0 - - - - - - -
27/03:00pm 19.0 S 19 25 1018.6 - 0.0 - - - - - - -
27/02:30pm 18.3 S 18 23 1018.7 - 0.0 - - - - - - -
27/02:00pm 18.3 SSE 15 22 1018.7 - 0.0 - - - - - - -
27/01:30pm 18.8 S 15 21 1018.9 - 0.0 - - - - - - -
27/01:00pm 19.4 S 13 18 1019.0 - 0.0 - - - - - - -
27/12:30pm 17.3 S 15 22 1019.3 - 0.0 - - - - - - -
27/12:00pm 17.8 S 13 18 1019.4 - 0.0 - - - - - - -
27/11:30am 18.1 S 12 19 1019.6 - 0.0 - - - - - - -
27/11:00am 17.1 S 11 17 1019.7 - 0.0 - - - - - - -
27/10:30am 17.1 S 10 16 1019.8 - 0.0 - - - - - - -
27/10:00am 16.8 S 11 16 1019.9 - 0.0 - - - - - - -
27/09:30am 16.1 SSE 8 12 1019.8 - 0.0 - - - - - - -
27/09:00am 14.8 SSE 3 5 1019.8 - 0.0 - - - - - - -
27/08:30am 12.5 CALM 0 0 1019.5 - 0.0 - - - - - - -
27/08:00am 10.4 CALM 0 0 1019.2 - 0.0 - - - - - - -
27/07:30am 8.7 CALM 0 0 1018.9 - 0.0 - - - - - - -
27/07:00am 7.7 CALM 0 1 1018.6 - 0.0 - - - - - - -
27/06:30am 6.9 CALM 0 0 1018.4 - 0.0 - - - - - - -
27/06:00am 6.6 CALM 0 0 1018.2 - 0.0 - - - - - - -
27/05:30am 6.3 ESE 1 1 1018.0 - 0.0 - - - - - - -
27/05:00am 7.0 ESE 1 2 1018.0 - 0.0 - - - - - - -
27/04:30am 6.8 ESE 1 2 1018.2 - 0.0 - - - - - - -
27/04:00am 7.8 ESE 2 2 1018.3 - 0.0 - - - - - - -
27/03:30am 7.0 CALM 0 0 1018.5 - 0.0 - - - - - - -
27/03:00am 7.6 CALM 0 0 1018.6 - 0.0 - - - - - - -
27/02:30am 8.9 ESE 1 1 1018.7 - 0.0 - - - - - - -
27/02:00am 9.5 SE 2 4 1018.9 - 0.0 - - - - - - -
27/01:30am 11.3 SSE 3 5 1019.0 - 0.0 - - - - - - -
27/01:00am 12.3 SSE 6 8 1019.1 - 0.0 - - - - - - -
27/12:30am 12.9 SSE 7 9 1019.1 - 0.0 - - - - - - -
27/12:00am 12.5 SSE 7 10 1019.2 - 0.0 - - - - - - -
 
Date/Time
EDT
Temp

°C
Wind Pressure Rain
since 9am
mm
Weather Cloud Vis
km
Sea
Height
m
Swell
Dir
 
Speed
knots
Gust
knots
hPa Trend Height
m
Period
s
Dir
26/11:30pm 12.2 SSE 6 9 1019.3 - 0.0 - - - - - - -
26/11:00pm 12.7 SSE 7 11 1019.5 - 0.0 - - - - - - -
26/10:30pm 13.4 SSE 8 10 1019.5 - 0.0 - - - - - - -
26/10:00pm 13.2 SSE 7 10 1019.5 - 0.0 - - - - - - -
26/09:30pm 14.1 SSE 9 13 1019.3 - 0.0 - - - - - - -
26/09:00pm 14.4 SSE 9 13 1019.1 - 0.0 - - - - - - -
26/08:30pm 15.2 S 11 15 1018.9 - 0.0 - - - - - - -
26/08:00pm 16.0 S 12 16 1018.6 - 0.0 - - - - - - -
26/07:30pm 16.6 S 12 16 1018.4 - 0.0 - - - - - - -
26/07:00pm 17.4 S 13 19 1018.2 - 0.0 - - - - - - -
26/06:30pm 17.4 S 13 17 1017.9 - 0.0 - - - - - - -
26/06:00pm 17.6 S 14 21 1017.7 - 0.0 - - - - - - -
26/05:30pm 17.9 SSW 15 20 1017.8 - 0.0 - - - - - - -
26/05:00pm 18.5 S 14 21 1018.0 - 0.0 - - - - - - -
26/04:30pm 18.5 S 15 21 1018.1 - 0.0 - - - - - - -
26/04:00pm 18.6 S 15 21 1018.2 - 0.0 - - - - - - -
26/03:30pm 18.6 S 13 21 1018.2 - 0.0 - - - - - - -
26/03:00pm 19.2 SSW 13 19 1018.2 - 0.0 - - - - - - -
26/02:30pm 18.3 SSW 13 21 1018.3 - 0.0 - - - - - - -
26/02:00pm 18.6 SSW 13 19 1018.4 - 0.0 - - - - - - -
26/01:30pm 18.7 SSW 12 19 1018.5 - 0.0 - - - - - - -
26/01:00pm 18.6 SSW 11 17 1018.6 - 0.0 - - - - - - -
26/12:30pm 18.6 S 12 17 1018.7 - 0.0 - - - - - - -
26/12:00pm 18.1 SSW 12 17 1018.8 - 0.0 - - - - - - -
26/11:30am 17.9 SSW 9 13 1019.0 - 0.0 - - - - - - -
26/11:00am 17.6 S 8 12 1019.0 - 0.0 - - - - - - -
26/10:30am 17.4 S 7 9 1019.2 - 0.0 - - - - - - -
26/10:00am 16.0 SW 4 5 1019.2 - 0.0 - - - - - - -
26/09:30am 16.3 S 8 15 1019.0 - 0.0 - - - - - - -
26/09:00am 16.6 SSE 2 8 1018.9 - 0.0 - - - - - - -
26/08:30am 14.8 CALM 0 1 1018.5 - 0.0 - - - - - - -
26/08:00am 10.1 ESE 1 2 1018.3 - 0.0 - - - - - - -
26/07:30am 6.3 CALM 0 0 1017.8 - 0.0 - - - - - - -
26/07:00am 6.1 CALM 0 0 1017.5 - 0.0 - - - - - - -
26/06:30am 7.5 CALM 0 0 1017.2 - 0.0 - - - - - - -
26/06:00am 6.4 CALM 0 0 1016.7 - 0.0 - - - - - - -
26/05:30am 8.4 CALM 0 0 1016.3 - 0.0 - - - - - - -
26/05:00am 9.2 CALM 0 0 1016.1 - 0.0 - - - - - - -
26/04:30am 10.7 S 2 3 1015.9 - 0.0 - - - - - - -
26/04:00am 11.7 S 5 6 1015.8 - 0.0 - - - - - - -
26/03:30am 12.8 S 6 7 1015.7 - 0.0 - - - - - - -
26/03:00am 13.8 S 6 11 1015.8 - 0.0 - - - - - - -
26/02:30am 13.4 S 7 12 1015.8 - 0.0 - - - - - - -
26/02:00am 12.3 S 3 4 1015.8 - 0.0 - - - - - - -
26/01:30am 12.5 S 5 7 1015.8 - 0.0 - - - - - - -
26/01:00am 12.9 S 5 8 1015.7 - 0.0 - - - - - - -
26/12:30am 13.5 S 8 11 1015.7 - 0.0 - - - - - - -
26/12:00am 13.8 S 12 16 1015.6 - 0.0 - - - - - - -
 
Date/Time
EDT
Temp

°C
Wind Pressure Rain
since 9am
mm
Weather Cloud Vis
km
Sea
Height
m
Swell
Dir
 
Speed
knots
Gust
knots
hPa Trend Height
m
Period
s
Dir
25/11:30pm 14.3 SSW 7 11 1015.6 - 0.0 - - - - - - -
25/11:00pm 14.3 SSW 9 12 1015.6 - 0.0 - - - - - - -
25/10:30pm 14.2 SSW 9 13 1015.4 - 0.0 - - - - - - -
25/10:00pm 14.1 SSW 10 17 1015.2 - 0.0 - - - - - - -
25/09:30pm 14.1 SSW 9 14 1015.0 - 0.0 - - - - - - -
25/09:00pm 14.0 SSW 14 22 1014.7 - 0.0 - - - - - - -
25/08:30pm 15.6 SSW 11 17 1014.4 - 0.0 - - - - - - -
25/08:00pm 15.9 SSW 14 20 1014.2 - 0.0 - - - - - - -
25/07:30pm 16.6 SW 13 21 1014.0 - 0.0 - - - - - - -
25/07:00pm 16.9 SW 14 21 1013.9 - 0.0 - - - - - - -
25/06:30pm 17.6 SW 14 22 1013.7 - 0.0 - - - - - - -
25/06:00pm 17.5 SW 15 22 1013.6 - 0.0 - - - - - - -
25/05:30pm 17.9 SW 13 19 1013.4 - 0.0 - - - - - - -
25/05:00pm 18.1 SW 13 22 1013.4 - 0.0 - - - - - - -
25/04:30pm 18.6 SW 14 23 1013.4 - 0.0 - - - - - - -
25/04:00pm 18.2 SW 14 23 1013.4 - 0.0 - - - - - - -
25/03:30pm 19.2 SW 13 19 1013.3 - 0.0 - - - - - - -
25/03:00pm 19.4 SW 13 19 1013.3 - 0.0 - - - - - - -
25/02:30pm 19.0 SW 14 22 1013.3 - 0.0 - - - - - - -
25/02:00pm 18.5 WSW 13 22 1013.3 - 0.0 - - - - - - -
25/01:30pm 17.6 WSW 11 16 1013.3 - 0.0 - - - - - - -
25/01:00pm 18.5 SW 15 22 1013.2 - 0.0 - - - - - - -
25/12:30pm 17.9 WSW 8 13 1013.1 - 0.0 - - - - - - -
25/12:00pm 16.5 WSW 12 20 1013.0 - 0.0 - - - - - - -
25/11:30am 17.9 W 11 18 1012.5 - 0.0 - - - - - - -
25/11:00am 15.8 WSW 11 22 1012.4 - 0.0 - - - - - - -

Other Formats:

Comma delimited format used in spreadsheet applications
http://www.bom.gov.au/fwo/IDV60701/IDV60701.95816.axf

JavaScript Object Notation format (JSON) in row-major order
http://www.bom.gov.au/fwo/IDV60701/IDV60701.95816.json